EGQL/ADX METAR and TAF weather

Enter ICAO airport designator
Station Type Date Time Source
EGQL METAR 2022/01/26 20:50 UTC NOAA

EGQL 262050Z 25021KT 9999 SCT013 09/07 Q1010 RMK GRN


Station Type Date Time Source
EGQL Decoded METAR 2022/01/26 20:50 UTC NOAA

Leuchars, United Kingdom (EGQL) 56-23N 002-52W 0M
Jan 26, 2022 - 03:50 PM EST / 2022.01.26 2050 UTC
Wind: from the WSW (250 degrees) at 24 MPH (21 KT):0
Visibility: greater than 7 mile(s):0
Sky conditions: partly cloudy
Temperature: 48 F (9 C)
Dew Point: 44 F (7 C)
Relative Humidity: 87%
Pressure (altimeter): 29.83 in. Hg (1010 hPa)
ob: EGQL 262050Z 25021KT 9999 SCT013 09/07 Q1010 RMK GRN
cycle: 21

Station Type Date Time Source
EGQL TAF 2011/07/27 06:03 UTC NOAA

TAF TAF
AMD EGQL 270424Z 2706/2724 14005KT 9999 BKN020 PROB30
TEMPO 2706/2708 SCT012
BECMG 2708/2710 SCT025

Example: see airport list